createdAt,value
2017-09-21T00:00:25.558Z,33.63
2017-09-21T00:02:53.010Z,35.60
2017-09-21T00:05:20.466Z,36.30
2017-09-21T00:07:47.956Z,34.63
2017-09-21T00:10:15.414Z,34.67
2017-09-21T00:12:42.867Z,38.07
2017-09-21T00:15:10.338Z,36.87
2017-09-21T00:17:37.790Z,36.10
2017-09-21T00:20:05.275Z,35.43
2017-09-21T00:22:32.732Z,33.00
2017-09-21T00:25:00.194Z,36.37
2017-09-21T00:27:27.682Z,34.77
2017-09-21T00:29:55.737Z,34.73
2017-09-21T00:32:23.281Z,34.53
2017-09-21T00:34:50.758Z,33.83
2017-09-21T00:37:18.214Z,33.37
2017-09-21T00:39:45.666Z,34.10
2017-09-21T00:42:13.145Z,31.53
2017-09-21T00:44:40.630Z,31.53
2017-09-21T00:47:08.090Z,33.30
2017-09-21T00:49:35.562Z,32.23
2017-09-21T00:52:03.031Z,33.80
2017-09-21T00:54:30.482Z,34.90
2017-09-21T00:56:57.963Z,35.27
2017-09-21T00:59:25.430Z,35.17
2017-09-21T01:01:52.907Z,36.17
2017-09-21T01:04:20.358Z,36.77
2017-09-21T01:06:47.810Z,37.57
2017-09-21T01:09:15.283Z,41.20
2017-09-21T01:11:42.738Z,41.47
2017-09-21T01:14:10.190Z,40.33
2017-09-21T01:16:37.665Z,38.40
2017-09-21T01:19:05.146Z,37.90
2017-09-21T01:21:32.608Z,41.90
2017-09-21T01:24:00.086Z,36.77
2017-09-21T01:26:27.542Z,38.37
2017-09-21T01:28:54.995Z,36.53
2017-09-21T01:31:22.479Z,39.03
2017-09-21T01:33:50.801Z,38.70
2017-09-21T01:36:18.280Z,38.90
2017-09-21T01:38:45.739Z,40.27
2017-09-21T01:41:13.197Z,40.57
2017-09-21T01:43:40.674Z,38.70
2017-09-21T01:46:08.127Z,35.13
2017-09-21T01:48:35.595Z,36.00
2017-09-21T01:51:03.070Z,38.20
2017-09-21T01:53:30.522Z,37.33
2017-09-21T01:55:57.979Z,36.63
2017-09-21T01:58:25.453Z,37.57
2017-09-21T02:00:52.914Z,35.90
2017-09-21T02:03:20.506Z,36.67
2017-09-21T02:05:48.044Z,36.40
2017-09-21T02:08:15.556Z,38.77
2017-09-21T02:10:43.051Z,38.67
2017-09-21T02:13:10.604Z,38.33
2017-09-21T02:15:38.099Z,40.03
2017-09-21T02:18:05.575Z,37.77
2017-09-21T02:20:33.032Z,38.00
2017-09-21T02:23:00.490Z,39.63
2017-09-21T02:25:27.972Z,36.70
2017-09-21T02:27:55.430Z,37.67
2017-09-21T02:30:22.882Z,37.67
2017-09-21T02:32:50.363Z,36.30
2017-09-21T02:35:17.818Z,38.67
2017-09-21T02:37:45.274Z,38.30
2017-09-21T02:40:12.758Z,38.10
2017-09-21T02:42:40.222Z,37.77
2017-09-21T02:45:07.674Z,38.70
2017-09-21T02:47:35.147Z,40.33
2017-09-21T02:50:02.607Z,40.07
2017-09-21T02:52:30.087Z,42.47
2017-09-21T02:54:57.552Z,40.87
2017-09-21T02:57:25.017Z,39.47
2017-09-21T02:59:52.506Z,42.13
2017-09-21T03:02:19.966Z,47.57
2017-09-21T03:04:47.427Z,46.00
2017-09-21T03:07:14.906Z,44.03
2017-09-21T03:09:42.371Z,44.90
2017-09-21T03:12:09.830Z,43.23
2017-09-21T03:14:37.314Z,50.40
2017-09-21T03:17:04.779Z,43.97
2017-09-21T03:19:32.237Z,46.33
2017-09-21T03:21:59.721Z,47.73
2017-09-21T03:24:27.183Z,43.40
2017-09-21T03:26:54.642Z,42.97
2017-09-21T03:29:22.138Z,42.90
2017-09-21T03:31:49.586Z,38.73
2017-09-21T03:34:17.038Z,44.27
2017-09-21T03:36:44.513Z,38.17
2017-09-21T03:39:11.979Z,37.55
2017-09-21T03:41:39.470Z,40.25
2017-09-21T03:44:06.934Z,38.05
2017-09-21T03:46:34.398Z,39.25
2017-09-21T03:49:01.882Z,39.80
2017-09-21T03:51:29.335Z,39.80
2017-09-21T03:53:56.831Z,39.27
2017-09-21T03:56:24.281Z,37.37
2017-09-21T03:58:51.750Z,37.78
2017-09-21T04:01:19.225Z,39.53
2017-09-21T04:03:46.690Z,39.07
2017-09-21T04:06:14.174Z,38.10
2017-09-21T04:08:41.671Z,37.08
2017-09-21T04:11:09.134Z,36.38
2017-09-21T04:13:36.563Z,36.53
2017-09-21T04:16:04.078Z,37.92
2017-09-21T04:18:31.543Z,38.40
2017-09-21T04:20:59.230Z,36.92
2017-09-21T04:23:26.716Z,36.55
2017-09-21T04:25:54.182Z,35.03
2017-09-21T04:28:21.667Z,36.60
2017-09-21T04:30:49.154Z,36.20
2017-09-21T04:33:16.635Z,36.60
2017-09-21T04:35:44.082Z,32.37
2017-09-21T04:38:11.578Z,32.72
2017-09-21T04:40:39.043Z,34.63
2017-09-21T04:43:06.542Z,33.67
2017-09-21T04:45:34.002Z,34.27
2017-09-21T04:48:01.467Z,33.65
2017-09-21T04:50:28.954Z,33.03
2017-09-21T04:52:56.418Z,32.10
2017-09-21T04:55:23.886Z,33.03
2017-09-21T04:57:51.371Z,32.08
2017-09-21T05:00:18.859Z,33.75
2017-09-21T05:02:46.346Z,32.05
2017-09-21T05:05:13.813Z,30.92
2017-09-21T05:07:41.274Z,32.33
2017-09-21T05:10:08.767Z,32.28
2017-09-21T05:12:36.250Z,32.05
2017-09-21T05:15:03.739Z,34.88
2017-09-21T05:17:31.203Z,34.10
2017-09-21T05:19:58.667Z,31.48
2017-09-21T05:22:26.155Z,32.17
2017-09-21T05:24:53.614Z,34.28
2017-09-21T05:27:21.106Z,33.40
2017-09-21T05:29:48.571Z,32.70
2017-09-21T05:32:16.022Z,34.13
2017-09-21T05:34:43.510Z,30.83
2017-09-21T05:37:10.974Z,31.52
2017-09-21T05:39:38.438Z,33.70
2017-09-21T05:42:05.919Z,33.47
2017-09-21T05:44:33.371Z,31.50
2017-09-21T05:47:00.833Z,33.55
2017-09-21T05:49:28.318Z,33.67
2017-09-21T05:51:55.774Z,33.27
2017-09-21T05:54:23.236Z,34.08
2017-09-21T05:56:50.802Z,33.67
2017-09-21T05:59:18.270Z,33.63
2017-09-21T06:01:45.757Z,34.78
2017-09-21T06:04:13.217Z,34.15
2017-09-21T06:06:40.678Z,33.58
2017-09-21T06:09:08.163Z,33.45
2017-09-21T06:11:35.631Z,34.40
2017-09-21T06:14:03.119Z,33.20
2017-09-21T06:16:30.601Z,36.50
2017-09-21T06:18:58.077Z,35.63
2017-09-21T06:21:25.572Z,35.92
2017-09-21T06:23:53.038Z,35.67
2017-09-21T06:26:20.494Z,36.97
2017-09-21T06:28:47.979Z,34.38
2017-09-21T06:31:15.478Z,35.85
2017-09-21T06:33:42.935Z,36.13
2017-09-21T06:36:10.419Z,37.17
2017-09-21T06:38:37.875Z,34.22
2017-09-21T06:41:05.338Z,36.00
2017-09-21T06:43:32.877Z,36.30
2017-09-21T06:46:00.347Z,39.05
2017-09-21T06:48:27.822Z,38.10
2017-09-21T06:50:55.302Z,37.30
2017-09-21T06:53:22.754Z,36.00
2017-09-21T06:55:50.209Z,36.17
2017-09-21T06:58:17.705Z,34.60
2017-09-21T07:00:45.155Z,38.57
2017-09-21T07:03:12.610Z,35.37
2017-09-21T07:05:40.082Z,34.80
2017-09-21T07:08:07.546Z,37.85
2017-09-21T07:10:35.023Z,36.10
2017-09-21T07:13:02.491Z,33.50
2017-09-21T07:15:29.954Z,36.22
2017-09-21T07:17:57.430Z,35.87
2017-09-21T07:20:24.883Z,35.93
2017-09-21T07:22:52.339Z,34.73
2017-09-21T07:25:19.818Z,35.00
2017-09-21T07:27:47.266Z,33.53
2017-09-21T07:30:14.744Z,31.60
2017-09-21T07:32:42.241Z,30.07
2017-09-21T07:35:09.710Z,33.05
2017-09-21T07:37:37.199Z,33.55
2017-09-21T07:40:04.881Z,33.23
2017-09-21T07:42:32.338Z,31.70
2017-09-21T07:44:59.805Z,31.57
2017-09-21T07:47:27.268Z,30.33
2017-09-21T07:49:54.745Z,34.47
2017-09-21T07:52:22.202Z,32.97
2017-09-21T07:54:49.657Z,35.70
2017-09-21T07:57:17.136Z,32.17
2017-09-21T07:59:44.601Z,31.37
2017-09-21T08:02:12.086Z,32.10
2017-09-21T08:04:39.542Z,30.60
2017-09-21T08:07:06.998Z,32.50
2017-09-21T08:09:34.475Z,31.33
2017-09-21T08:12:01.937Z,31.73
2017-09-21T08:14:29.394Z,31.23
2017-09-21T08:16:56.841Z,32.00
2017-09-21T08:19:24.338Z,31.67
2017-09-21T08:21:51.797Z,32.57
2017-09-21T08:24:19.278Z,30.80
2017-09-21T08:26:46.729Z,31.10
2017-09-21T08:29:14.182Z,31.03
2017-09-21T08:31:41.666Z,33.33
2017-09-21T08:34:09.123Z,33.40
2017-09-21T08:36:36.587Z,31.50
2017-09-21T08:39:04.066Z,33.17
2017-09-21T08:41:31.531Z,30.83
2017-09-21T08:43:58.990Z,32.00
2017-09-21T08:46:26.467Z,31.00
2017-09-21T08:48:53.927Z,33.03
2017-09-21T08:51:21.406Z,34.03
2017-09-21T08:53:48.882Z,32.10
2017-09-21T08:56:16.338Z,33.00
2017-09-21T08:58:43.827Z,31.60
2017-09-21T09:01:11.290Z,31.37
2017-09-21T09:03:38.754Z,30.13
2017-09-21T09:06:06.234Z,31.20
2017-09-21T09:08:33.686Z,31.70
2017-09-21T09:11:01.146Z,30.77
2017-09-21T09:13:28.622Z,30.47
2017-09-21T09:15:56.079Z,29.83
2017-09-21T09:18:23.546Z,30.40
2017-09-21T09:20:51.031Z,30.60
2017-09-21T09:23:19.102Z,32.00
2017-09-21T09:25:46.926Z,30.07
2017-09-21T09:28:14.870Z,30.70
2017-09-21T09:30:42.501Z,30.43
2017-09-21T09:33:09.983Z,29.67
2017-09-21T09:35:37.455Z,26.27
2017-09-21T09:38:04.938Z,28.90
2017-09-21T09:40:32.404Z,29.23
2017-09-21T09:42:59.871Z,27.93
2017-09-21T09:45:27.359Z,26.90
2017-09-21T09:47:54.814Z,26.10
2017-09-21T09:50:22.274Z,28.93
2017-09-21T09:52:49.760Z,26.30
2017-09-21T09:55:17.241Z,25.93
2017-09-21T09:57:44.698Z,26.07
2017-09-21T10:00:12.190Z,26.40
2017-09-21T10:02:39.662Z,25.80
2017-09-21T10:05:07.122Z,24.40
2017-09-21T10:07:34.599Z,22.53
2017-09-21T10:10:02.062Z,21.27
2017-09-21T10:12:29.566Z,22.70
2017-09-21T10:14:57.021Z,24.10
2017-09-21T10:17:24.479Z,21.13
2017-09-21T10:19:51.958Z,21.00
2017-09-21T10:22:19.433Z,24.60
2017-09-21T10:24:46.895Z,22.17
2017-09-21T10:27:14.386Z,22.20
2017-09-21T10:29:41.843Z,19.30
2017-09-21T10:32:09.299Z,19.80
2017-09-21T10:34:36.774Z,19.17
2017-09-21T10:37:04.234Z,18.70
2017-09-21T10:39:31.710Z,18.00
2017-09-21T10:41:59.162Z,16.47
2017-09-21T10:44:26.626Z,16.13
2017-09-21T10:46:54.144Z,15.80
2017-09-21T10:49:21.598Z,16.13
2017-09-21T10:51:49.062Z,16.80
2017-09-21T10:54:16.546Z,14.67
2017-09-21T10:56:44.011Z,16.27
2017-09-21T10:59:11.471Z,14.80
2017-09-21T11:01:38.948Z,16.30
2017-09-21T11:04:06.414Z,14.87
2017-09-21T11:06:33.889Z,13.67
2017-09-21T11:09:01.346Z,11.63
2017-09-21T11:11:28.802Z,9.87
2017-09-21T11:13:56.285Z,11.10
2017-09-21T11:16:23.746Z,13.40
2017-09-21T11:18:51.306Z,13.23
2017-09-21T11:21:18.782Z,11.93
2017-09-21T11:23:46.240Z,12.83
2017-09-21T11:26:13.718Z,13.73
2017-09-21T11:28:41.174Z,13.83
2017-09-21T11:31:08.632Z,12.97
2017-09-21T11:33:36.114Z,14.00
2017-09-21T11:36:03.585Z,14.00
2017-09-21T11:38:31.046Z,12.50
2017-09-21T11:40:58.519Z,11.70
2017-09-21T11:43:25.988Z,11.43
2017-09-21T11:45:53.475Z,11.83
2017-09-21T11:48:20.938Z,10.43
2017-09-21T11:50:48.399Z,11.50
2017-09-21T11:53:15.875Z,11.17
2017-09-21T11:55:43.334Z,12.57
2017-09-21T11:58:10.854Z,11.70
2017-09-21T12:00:38.315Z,12.33
2017-09-21T12:03:05.790Z,13.90
2017-09-21T12:05:33.269Z,13.07
2017-09-21T12:08:00.730Z,13.87
2017-09-21T12:10:28.191Z,14.20
2017-09-21T12:12:55.666Z,13.37
2017-09-21T12:15:23.123Z,15.30
2017-09-21T12:17:50.602Z,13.30
2017-09-21T12:20:18.059Z,13.57
2017-09-21T12:22:45.515Z,13.90
2017-09-21T12:25:12.998Z,14.63
2017-09-21T12:27:40.454Z,14.13
2017-09-21T12:30:07.934Z,12.63
2017-09-21T12:32:35.399Z,12.90
2017-09-21T12:35:02.858Z,12.17
2017-09-21T12:37:30.339Z,13.60
2017-09-21T12:39:57.795Z,9.90
2017-09-21T12:42:25.251Z,10.20
2017-09-21T12:44:52.748Z,10.03
2017-09-21T12:47:20.213Z,10.50
2017-09-21T12:49:47.671Z,8.90
2017-09-21T12:52:15.142Z,9.07
2017-09-21T12:54:42.598Z,9.20
2017-09-21T12:57:10.058Z,8.30
2017-09-21T12:59:37.527Z,9.60
2017-09-21T13:02:04.986Z,8.93
2017-09-21T13:04:32.469Z,8.77
2017-09-21T13:06:59.926Z,9.53
2017-09-21T13:09:27.379Z,9.93
2017-09-21T13:11:54.859Z,9.87
2017-09-21T13:14:22.311Z,9.70
2017-09-21T13:16:49.772Z,9.80
2017-09-21T13:19:17.254Z,9.40
2017-09-21T13:21:44.708Z,9.53
2017-09-21T13:24:12.191Z,9.57
2017-09-21T13:26:39.646Z,9.77
2017-09-21T13:29:07.135Z,10.13
2017-09-21T13:31:34.683Z,10.10
2017-09-21T13:34:02.147Z,11.20
2017-09-21T13:36:29.607Z,9.97
2017-09-21T13:38:57.083Z,8.57
2017-09-21T13:41:24.547Z,10.17
2017-09-21T13:43:52.007Z,9.93
2017-09-21T13:46:19.477Z,9.67
2017-09-21T13:48:46.997Z,9.60
2017-09-21T13:51:14.475Z,10.23
2017-09-21T13:53:41.943Z,9.73
2017-09-21T13:56:09.474Z,9.60
2017-09-21T13:58:36.978Z,9.67
2017-09-21T14:01:04.443Z,10.17
2017-09-21T14:03:31.898Z,9.57
2017-09-21T14:05:59.373Z,8.43
2017-09-21T14:08:26.817Z,8.50
2017-09-21T14:10:54.306Z,9.60
2017-09-21T14:13:21.774Z,9.20
2017-09-21T14:15:49.233Z,7.90
2017-09-21T14:18:16.712Z,8.40
2017-09-21T14:20:44.165Z,9.80
2017-09-21T14:23:11.618Z,8.90
2017-09-21T14:25:39.096Z,9.40
2017-09-21T14:28:06.547Z,9.50
2017-09-21T14:30:34.010Z,8.83
2017-09-21T14:33:01.482Z,9.17
2017-09-21T14:35:28.946Z,9.40
2017-09-21T14:37:56.533Z,9.67
2017-09-21T14:40:23.991Z,9.30
2017-09-21T14:42:51.464Z,11.20
2017-09-21T14:45:18.950Z,10.17
2017-09-21T14:47:46.417Z,10.17
2017-09-21T14:50:13.893Z,9.90
2017-09-21T14:52:41.343Z,9.30
2017-09-21T14:55:08.797Z,8.73
2017-09-21T14:57:36.266Z,7.93
2017-09-21T15:00:03.718Z,7.73
2017-09-21T15:02:31.199Z,11.20
2017-09-21T15:04:58.654Z,10.27
2017-09-21T15:07:26.110Z,10.27
2017-09-21T15:09:53.588Z,9.53
2017-09-21T15:12:21.042Z,9.97
2017-09-21T15:14:48.524Z,10.03
2017-09-21T15:17:15.983Z,10.47
2017-09-21T15:19:43.444Z,10.10
2017-09-21T15:22:10.932Z,11.20
2017-09-21T15:24:38.388Z,9.90
2017-09-21T15:27:05.899Z,10.30
2017-09-21T15:29:33.379Z,9.17
2017-09-21T15:32:00.850Z,9.73
2017-09-21T15:34:28.302Z,9.03
2017-09-21T15:36:55.766Z,8.30
2017-09-21T15:39:23.251Z,9.20
2017-09-21T15:41:50.726Z,8.93
2017-09-21T15:44:18.181Z,9.87
2017-09-21T15:46:45.634Z,8.53
2017-09-21T15:49:13.111Z,9.40
2017-09-21T15:51:40.575Z,12.37
2017-09-21T15:54:08.030Z,9.47
2017-09-21T15:56:35.503Z,8.47
2017-09-21T15:59:02.972Z,8.93
2017-09-21T16:01:30.468Z,8.13
2017-09-21T16:03:57.934Z,9.00
2017-09-21T16:06:25.383Z,8.17
2017-09-21T16:08:52.858Z,8.90
2017-09-21T16:11:20.311Z,7.20
2017-09-21T16:13:47.766Z,8.30
2017-09-21T16:16:15.234Z,7.30
2017-09-21T16:18:42.694Z,8.47
2017-09-21T16:21:10.174Z,7.80
2017-09-21T16:23:37.627Z,8.57
2017-09-21T16:26:05.079Z,7.97
2017-09-21T16:28:32.726Z,6.97
2017-09-21T16:31:00.183Z,7.77
2017-09-21T16:33:27.638Z,8.23
2017-09-21T16:35:55.106Z,7.40
2017-09-21T16:38:22.571Z,8.37
2017-09-21T16:40:50.046Z,7.20
2017-09-21T16:43:17.949Z,7.47
2017-09-21T16:45:45.414Z,7.70
2017-09-21T16:48:12.882Z,7.03
2017-09-21T16:50:40.358Z,8.20
2017-09-21T16:53:07.819Z,7.60
2017-09-21T16:55:35.295Z,7.90
2017-09-21T16:58:02.746Z,8.90
2017-09-21T17:00:30.199Z,8.47
2017-09-21T17:02:57.679Z,7.90
2017-09-21T17:05:25.146Z,8.20
2017-09-21T17:07:52.668Z,7.57
2017-09-21T17:10:20.151Z,7.80
2017-09-21T17:12:47.622Z,7.87
2017-09-21T17:15:15.091Z,8.30
2017-09-21T17:17:42.566Z,8.00
2017-09-21T17:20:10.042Z,8.33
2017-09-21T17:22:37.545Z,7.80
2017-09-21T17:25:05.038Z,8.20
2017-09-21T17:27:32.518Z,8.77
2017-09-21T17:29:59.993Z,10.10
2017-09-21T17:32:27.467Z,8.57
2017-09-21T17:34:54.939Z,7.97
2017-09-21T17:37:22.418Z,8.83
2017-09-21T17:39:49.893Z,10.17
2017-09-21T17:42:17.370Z,10.23
2017-09-21T17:44:44.822Z,9.93
2017-09-21T17:47:12.274Z,9.83
2017-09-21T17:49:39.754Z,8.30
2017-09-21T17:52:07.210Z,8.93
2017-09-21T17:54:34.694Z,8.87
2017-09-21T17:57:02.154Z,9.17
2017-09-21T17:59:29.615Z,8.83
2017-09-21T18:01:57.090Z,9.60
2017-09-21T18:04:24.546Z,9.70
2017-09-21T18:06:52.026Z,10.33
2017-09-21T18:09:19.482Z,13.50
2017-09-21T18:11:46.939Z,12.80
2017-09-21T18:14:14.419Z,12.07
2017-09-21T18:16:41.912Z,12.17
2017-09-21T18:19:09.363Z,11.80
2017-09-21T18:21:36.845Z,12.10
2017-09-21T18:24:04.361Z,10.90
2017-09-21T18:26:31.862Z,12.17
2017-09-21T18:28:59.322Z,10.90
2017-09-21T18:31:26.800Z,11.40
2017-09-21T18:33:54.290Z,10.67
2017-09-21T18:36:21.800Z,11.60
2017-09-21T18:38:49.259Z,10.73
2017-09-21T18:41:16.794Z,14.13
2017-09-21T18:43:44.504Z,12.07
2017-09-21T18:46:11.998Z,11.83
2017-09-21T18:48:39.567Z,11.40
2017-09-21T18:51:07.725Z,11.10
2017-09-21T18:53:35.807Z,11.00
2017-09-21T18:56:03.732Z,12.00
2017-09-21T18:58:31.573Z,10.87
2017-09-21T19:00:59.669Z,11.97
2017-09-21T19:03:27.896Z,11.93
2017-09-21T19:05:56.465Z,10.93
2017-09-21T19:08:24.723Z,11.20
2017-09-21T19:11:07.858Z,11.77
2017-09-21T19:13:38.829Z,11.57
2017-09-21T19:16:12.610Z,11.50
2017-09-21T19:18:50.678Z,10.43
2017-09-21T19:21:19.023Z,10.60
2017-09-21T19:23:47.418Z,12.47
2017-09-21T19:26:17.952Z,12.20
2017-09-21T19:28:53.948Z,12.10
2017-09-21T19:34:10.292Z,12.27
2017-09-21T19:36:38.947Z,13.47
2017-09-21T19:39:07.671Z,12.93
2017-09-21T19:41:37.169Z,12.47
2017-09-21T19:44:05.551Z,12.70
2017-09-21T19:46:34.082Z,13.37
2017-09-21T19:49:02.581Z,13.20
2017-09-21T19:51:30.987Z,12.70
2017-09-21T19:53:59.294Z,13.97
2017-09-21T19:56:28.058Z,12.63
2017-09-21T19:58:56.154Z,13.30
2017-09-21T20:01:24.126Z,12.33
2017-09-21T20:03:52.044Z,12.33
2017-09-21T20:06:19.827Z,14.23
2017-09-21T20:08:47.936Z,15.00
2017-09-21T20:11:15.964Z,18.47
2017-09-21T20:13:43.829Z,17.60
2017-09-21T20:16:11.571Z,18.30
2017-09-21T20:18:39.219Z,16.97
2017-09-21T20:21:06.905Z,18.20
2017-09-21T20:23:34.619Z,17.40
2017-09-21T20:26:02.195Z,16.80
2017-09-21T20:28:29.734Z,17.00
2017-09-21T20:30:57.213Z,16.83
2017-09-21T20:33:24.712Z,16.57
2017-09-21T20:35:52.179Z,16.60
2017-09-21T20:38:19.644Z,18.70
2017-09-21T20:40:47.138Z,19.30
2017-09-21T20:43:14.595Z,17.63
2017-09-21T20:45:42.129Z,16.73
2017-09-21T20:48:09.616Z,18.53
2017-09-21T20:50:37.074Z,17.57
2017-09-21T20:53:04.585Z,19.00
2017-09-21T20:55:32.094Z,17.27
2017-09-21T20:57:59.547Z,18.73
2017-09-21T21:00:27.138Z,18.13
2017-09-21T21:02:54.607Z,18.53
2017-09-21T21:05:22.073Z,19.43
2017-09-21T21:07:49.558Z,18.10
2017-09-21T21:10:17.018Z,18.20
2017-09-21T21:12:44.478Z,18.70
2017-09-21T21:15:11.955Z,20.23
2017-09-21T21:17:39.418Z,20.07
2017-09-21T21:20:06.902Z,19.80
2017-09-21T21:22:34.366Z,18.80
2017-09-21T21:25:01.823Z,20.00
2017-09-21T21:27:29.307Z,20.30
2017-09-21T21:29:56.765Z,23.17
2017-09-21T21:32:24.222Z,22.53
2017-09-21T21:34:51.706Z,22.77
2017-09-21T21:37:19.163Z,23.43
2017-09-21T21:39:46.631Z,24.33
2017-09-21T21:42:14.111Z,23.03
2017-09-21T21:44:41.566Z,23.10
2017-09-21T21:47:09.046Z,22.23
2017-09-21T21:49:36.548Z,21.50
2017-09-21T21:52:04.011Z,20.00
2017-09-21T21:54:31.452Z,19.83
2017-09-21T21:56:58.938Z,21.70
2017-09-21T21:59:26.418Z,20.87
2017-09-21T22:01:53.890Z,20.17
2017-09-21T22:04:21.359Z,21.70
2017-09-21T22:06:48.863Z,22.20
2017-09-21T22:09:16.343Z,23.30
2017-09-21T22:11:43.814Z,21.20
2017-09-21T22:14:11.270Z,21.37
2017-09-21T22:16:38.747Z,20.97
2017-09-21T22:19:06.223Z,22.80
2017-09-21T22:21:33.681Z,20.93
2017-09-21T22:24:01.139Z,23.23
2017-09-21T22:26:28.618Z,21.50
2017-09-21T22:28:56.075Z,22.83
2017-09-21T22:31:23.537Z,22.70
2017-09-21T22:33:51.014Z,23.60
2017-09-21T22:36:18.484Z,23.70
2017-09-21T22:38:45.962Z,21.17
2017-09-21T22:41:13.442Z,20.80
2017-09-21T22:43:40.902Z,20.67
2017-09-21T22:46:08.363Z,22.47
2017-09-21T22:48:35.842Z,20.43
2017-09-21T22:51:03.302Z,21.63
2017-09-21T22:53:30.762Z,20.47
2017-09-21T22:55:58.240Z,21.23
2017-09-21T22:58:25.703Z,21.73
2017-09-21T23:00:53.190Z,20.33
2017-09-21T23:03:20.613Z,20.40
2017-09-21T23:05:48.104Z,23.83
2017-09-21T23:08:15.591Z,22.73
2017-09-21T23:10:43.046Z,21.90
2017-09-21T23:13:10.506Z,23.27
2017-09-21T23:15:38.009Z,23.53
2017-09-21T23:18:05.483Z,22.90
2017-09-21T23:20:32.939Z,22.60
2017-09-21T23:23:00.467Z,22.30
2017-09-21T23:25:27.930Z,23.73
2017-09-21T23:27:55.390Z,23.40
2017-09-21T23:30:22.874Z,23.67
2017-09-21T23:32:50.333Z,22.47
2017-09-21T23:35:17.787Z,21.53
2017-09-21T23:37:45.270Z,22.43
2017-09-21T23:40:12.730Z,20.77
2017-09-21T23:42:40.186Z,20.80
2017-09-21T23:45:07.662Z,20.50
2017-09-21T23:47:35.118Z,20.57
2017-09-21T23:50:02.585Z,21.63
2017-09-21T23:52:30.070Z,24.97
2017-09-21T23:54:57.526Z,22.37
2017-09-21T23:57:24.984Z,22.30
2017-09-21T23:59:52.466Z,22.67
